Time;durP1;ratioP1;P1;durP2;ratioP2;P2;SDS_P1;SDS_P2;PMS_P1;PMS_P2;Temp;Humidity;BMP_temperature;BMP_pressure;BME280_temperature;BME280_humidity;BME280_pressure;Samples;Min_cycle;Max_cycle;Signal;HPM_P1;HPM_P2
2022/05/17 00:00:35;;;;;;;0.57;0.50;;;17.70;61.30;;;;;;5131454;27;20212;-59
2022/05/17 00:03:06;;;;;;;1.08;0.63;;;17.70;61.30;;;;;;5130738;27;20189;-60
2022/05/17 00:05:36;;;;;;;1.67;0.70;;;17.70;61.30;;;;;;5127791;27;20216;-60
2022/05/17 00:08:07;;;;;;;0.82;0.70;;;17.70;61.30;;;;;;5131368;27;20559;-60
2022/05/17 00:10:38;;;;;;;0.60;0.60;;;17.80;61.30;;;;;;5131403;27;20741;-59
2022/05/17 00:13:09;;;;;;;1.52;0.60;;;17.80;61.30;;;;;;5131290;27;20188;-60
2022/05/17 00:15:44;;;;;;;1.05;0.80;;;17.80;61.20;;;;;;5130809;27;20249;-59
2022/05/17 00:18:16;;;;;;;0.70;0.70;;;17.80;61.30;;;;;;5130484;27;20219;-59
2022/05/17 00:20:47;;;;;;;0.70;0.70;;;17.80;61.20;;;;;;5130858;27;20707;-60
2022/05/17 00:23:19;;;;;;;0.95;0.70;;;17.80;61.20;;;;;;5130602;27;20649;-60
2022/05/17 00:25:51;;;;;;;0.70;0.70;;;17.90;61.30;;;;;;5130357;28;20303;-60
2022/05/17 00:28:22;;;;;;;0.80;0.70;;;17.90;61.30;;;;;;5131409;28;20248;-59
2022/05/17 00:30:54;;;;;;;0.77;0.77;;;17.90;61.30;;;;;;5131034;28;20745;-59
2022/05/17 00:33:25;;;;;;;0.80;0.80;;;17.90;61.20;;;;;;5130509;27;20265;-60
2022/05/17 00:35:56;;;;;;;0.85;0.60;;;17.90;61.20;;;;;;5130957;28;20245;-60
2022/05/17 00:38:26;;;;;;;0.60;0.60;;;18.00;61.30;;;;;;5131069;27;20253;-60
2022/05/17 00:40:57;;;;;;;0.75;0.55;;;18.00;61.30;;;;;;5130696;28;20212;-60
2022/05/17 00:44:42;;;;;;;0.60;0.47;;;18.00;61.20;;;;;;5130903;28;20196;-60
2022/05/17 00:46:32;;;;;;;0.80;0.60;;;18.00;61.20;;;;;;5130559;28;20223;-60
2022/05/17 00:49:03;;;;;;;0.50;0.50;;;18.10;61.30;;;;;;5129453;28;20219;-59
2022/05/17 00:51:34;;;;;;;0.75;0.65;;;18.10;61.30;;;;;;5130365;28;20756;-59
2022/05/17 00:54:07;;;;;;;0.50;0.50;;;18.10;61.30;;;;;;5130218;28;20189;-59
2022/05/17 00:56:43;;;;;;;1.40;0.60;;;18.10;61.20;;;;;;5130355;28;20193;-59
2022/05/17 00:59:14;;;;;;;0.57;0.50;;;18.20;61.30;;;;;;5123323;28;20274;-59
2022/05/17 01:01:47;;;;;;;1.20;0.70;;;18.20;61.20;;;;;;5109752;28;20197;-59
2022/05/17 01:04:21;;;;;;;0.75;0.60;;;18.20;61.20;;;;;;5119353;28;20646;-58
2022/05/17 01:06:54;;;;;;;0.70;0.50;;;18.20;61.10;;;;;;5130103;28;20639;-61
2022/05/17 01:09:26;;;;;;;0.70;0.63;;;18.20;61.10;;;;;;5130352;28;20305;-60
2022/05/17 01:11:56;;;;;;;0.60;0.60;;;18.30;61.10;;;;;;5130617;28;20220;-60
2022/05/17 01:17:15;;;;;;;0.88;0.70;;;18.30;61.10;;;;;;5130715;28;20193;-59
2022/05/17 01:19:47;;;;;;;0.90;0.73;;;18.30;61.10;;;;;;5129934;28;20675;-59
2022/05/17 01:22:19;;;;;;;0.70;0.60;;;18.30;61.10;;;;;;5130369;28;20205;-59
2022/05/17 01:24:50;;;;;;;1.02;0.52;;;18.30;61.10;;;;;;5130673;28;20640;-60
2022/05/17 01:27:27;;;;;;;0.93;0.80;;;18.40;61.30;;;;;;5130347;28;20776;-60
2022/05/17 01:29:57;;;;;;;0.65;0.60;;;18.50;61.40;;;;;;5131335;27;20212;-60
2022/05/17 01:32:28;;;;;;;0.60;0.60;;;18.50;61.30;;;;;;5134175;27;20246;-60
2022/05/17 01:34:58;;;;;;;0.80;0.73;;;18.50;61.30;;;;;;5133547;27;20652;-60
2022/05/17 01:37:31;;;;;;;0.80;0.70;;;18.50;61.30;;;;;;5134124;27;20201;-60
2022/05/17 01:40:01;;;;;;;0.70;0.70;;;18.60;61.30;;;;;;5133349;27;20290;-61
2022/05/17 01:42:32;;;;;;;0.75;0.50;;;18.60;61.30;;;;;;5133541;27;20193;-60
2022/05/17 01:45:02;;;;;;;0.65;0.50;;;18.60;61.30;;;;;;5133847;27;20201;-59
2022/05/17 01:47:33;;;;;;;0.60;0.60;;;18.70;61.30;;;;;;5133803;27;20648;-61
2022/05/17 01:50:04;;;;;;;0.60;0.60;;;18.70;61.20;;;;;;5132943;27;20475;-59
2022/05/17 01:52:36;;;;;;;0.60;0.60;;;18.70;61.10;;;;;;5133300;27;20193;-60
2022/05/17 01:55:07;;;;;;;0.70;0.70;;;18.80;61.20;;;;;;5133558;27;20671;-60
2022/05/17 01:57:38;;;;;;;0.93;0.68;;;18.70;61.10;;;;;;5133729;27;20265;-59
2022/05/17 02:00:28;;;;;;;1.67;0.80;;;18.80;61.10;;;;;;5133445;27;20213;-59
2022/05/17 02:02:58;;;;;;;0.50;0.50;;;18.80;61.10;;;;;;5131081;27;20192;-58
2022/05/17 02:05:29;;;;;;;0.98;0.80;;;18.90;61.10;;;;;;5132429;27;20281;-60
2022/05/17 02:08:02;;;;;;;0.82;0.82;;;18.90;61.10;;;;;;5129562;27;20221;-59
2022/05/17 02:10:32;;;;;;;0.70;0.65;;;18.90;61.10;;;;;;5133322;27;20276;-59
2022/05/17 02:13:03;;;;;;;0.70;0.60;;;18.90;61.10;;;;;;5133285;27;20201;-59
2022/05/17 02:15:33;;;;;;;0.60;0.60;;;19.00;61.20;;;;;;5133270;27;20189;-59
2022/05/17 02:18:04;;;;;;;0.60;0.60;;;19.00;61.20;;;;;;5133229;27;20197;-58
2022/05/17 02:20:36;;;;;;;1.58;0.68;;;19.00;61.20;;;;;;5132876;27;20668;-59
2022/05/17 02:23:08;;;;;;;1.25;0.80;;;19.00;61.20;;;;;;5132992;27;20200;-59
2022/05/17 02:25:39;;;;;;;0.52;0.52;;;19.00;61.00;;;;;;5132527;27;20193;-60
2022/05/17 02:28:11;;;;;;;0.55;0.50;;;19.10;61.10;;;;;;5133126;27;20801;-59
2022/05/17 02:30:43;;;;;;;0.80;0.68;;;19.20;61.20;;;;;;5132697;27;20305;-60
2022/05/17 02:33:14;;;;;;;1.23;0.93;;;19.10;61.10;;;;;;5132544;27;20344;-59
2022/05/17 02:35:45;;;;;;;1.20;0.80;;;19.20;61.10;;;;;;5132097;27;20261;-59
2022/05/17 02:38:17;;;;;;;0.70;0.70;;;19.20;61.00;;;;;;5132758;27;20197;-60
2022/05/17 02:40:48;;;;;;;0.70;0.68;;;19.20;61.00;;;;;;5132584;27;20212;-59
2022/05/17 02:43:18;;;;;;;1.23;0.80;;;19.30;61.80;;;;;;5132767;27;20228;-59
2022/05/17 02:45:49;;;;;;;0.95;0.90;;;19.30;61.00;;;;;;5132805;27;20193;-59
2022/05/17 02:48:20;;;;;;;1.50;0.95;;;19.30;61.00;;;;;;5132629;27;20307;-59
2022/05/17 02:50:50;;;;;;;0.90;0.80;;;19.30;61.00;;;;;;5132021;27;20270;-60
2022/05/17 02:53:23;;;;;;;1.00;0.93;;;19.40;61.00;;;;;;5132786;27;20246;-59
2022/05/17 02:55:54;;;;;;;1.83;1.08;;;19.40;61.00;;;;;;5132601;27;20195;-58
2022/05/17 02:58:24;;;;;;;0.88;0.88;;;19.40;61.00;;;;;;5131533;27;20218;-59
2022/05/17 03:00:55;;;;;;;1.40;1.20;;;19.50;61.00;;;;;;5112533;27;20274;-59
2022/05/17 03:03:25;;;;;;;1.10;0.90;;;19.50;61.10;;;;;;5111835;28;20250;-59
2022/05/17 03:05:56;;;;;;;1.58;1.15;;;19.50;61.00;;;;;;5129085;27;20246;-59
2022/05/17 03:08:28;;;;;;;1.30;1.17;;;19.50;61.00;;;;;;5132189;27;20216;-59
2022/05/17 03:10:59;;;;;;;1.35;1.10;;;19.60;61.00;;;;;;5131957;27;20209;-58
2022/05/17 03:13:29;;;;;;;1.52;1.23;;;19.60;61.00;;;;;;5132189;27;20193;-60
2022/05/17 03:16:00;;;;;;;1.63;1.30;;;19.70;61.00;;;;;;5132065;27;20197;-60
2022/05/17 03:18:30;;;;;;;1.58;1.48;;;19.70;61.00;;;;;;5132100;27;20197;-59
2022/05/17 03:21:01;;;;;;;1.35;1.10;;;19.70;60.90;;;;;;5131574;27;20338;-59
2022/05/17 03:23:33;;;;;;;1.20;1.10;;;19.70;60.90;;;;;;5131738;27;20253;-59
2022/05/17 03:26:05;;;;;;;1.60;1.15;;;19.80;60.90;;;;;;5131345;27;20218;-59
2022/05/17 03:28:35;;;;;;;1.17;0.98;;;19.80;60.80;;;;;;5132170;27;20220;-59
2022/05/17 03:31:10;;;;;;;1.10;1.00;;;19.80;60.80;;;;;;5131883;27;20247;-59
2022/05/17 03:33:47;;;;;;;1.30;1.20;;;19.80;60.70;;;;;;5131822;27;20192;-60
2022/05/17 03:36:17;;;;;;;1.55;1.17;;;19.90;60.70;;;;;;5127032;27;20199;-59
2022/05/17 03:38:50;;;;;;;1.20;1.00;;;19.90;60.60;;;;;;5131461;27;20205;-58
2022/05/17 03:41:20;;;;;;;1.05;0.95;;;20.00;60.60;;;;;;5131428;27;20272;-59
2022/05/17 03:43:51;;;;;;;1.38;0.90;;;20.00;60.60;;;;;;5131572;27;20192;-59
2022/05/17 03:46:22;;;;;;;1.35;1.10;;;20.00;60.70;;;;;;5131521;27;20189;-59
2022/05/17 03:48:52;;;;;;;1.10;0.88;;;20.00;60.70;;;;;;5131719;27;20205;-59
2022/05/17 03:51:24;;;;;;;1.17;1.08;;;20.00;60.70;;;;;;5131155;27;20238;-59
2022/05/17 03:53:56;;;;;;;1.38;1.13;;;20.00;60.80;;;;;;5131004;27;20193;-59
2022/05/17 03:56:27;;;;;;;1.15;1.05;;;20.10;60.80;;;;;;5131451;27;20321;-59
2022/05/17 03:58:57;;;;;;;1.13;1.05;;;20.10;60.80;;;;;;5131273;27;20246;-59
2022/05/17 04:01:28;;;;;;;1.38;1.23;;;20.20;60.80;;;;;;5131186;27;20234;-58
2022/05/17 04:03:59;;;;;;;1.00;0.90;;;20.10;60.70;;;;;;5131180;27;20193;-58
2022/05/17 04:06:29;;;;;;;1.55;1.15;;;20.20;60.90;;;;;;5130736;27;20245;-58
2022/05/17 04:09:01;;;;;;;1.58;1.23;;;20.20;61.00;;;;;;5127663;27;20247;-60
2022/05/17 04:11:32;;;;;;;1.17;0.90;;;20.20;61.00;;;;;;5131135;27;20256;-58
2022/05/17 04:14:03;;;;;;;1.15;1.10;;;20.30;61.00;;;;;;5130966;27;20522;-59
2022/05/17 04:16:35;;;;;;;0.80;0.80;;;20.30;61.00;;;;;;5131093;27;20197;-59
2022/05/17 04:19:06;;;;;;;1.23;1.13;;;20.30;60.90;;;;;;5131344;28;20188;-58
2022/05/17 04:21:37;;;;;;;1.02;0.93;;;20.30;60.80;;;;;;5130517;27;20189;-58
2022/05/17 04:24:10;;;;;;;1.35;1.10;;;20.30;60.80;;;;;;5130719;27;20204;-59
2022/05/17 04:26:40;;;;;;;1.15;1.05;;;20.40;60.80;;;;;;5130689;27;20193;-59
2022/05/17 04:29:11;;;;;;;1.20;1.10;;;20.40;60.80;;;;;;5131005;28;20197;-58
2022/05/17 04:31:42;;;;;;;1.35;1.00;;;20.40;60.70;;;;;;5130419;28;20197;-58
2022/05/17 04:34:12;;;;;;;1.00;0.80;;;20.40;60.70;;;;;;5130753;28;20193;-60
2022/05/17 04:36:43;;;;;;;1.20;1.10;;;20.40;60.70;;;;;;5130187;28;20245;-58
2022/05/17 04:39:15;;;;;;;1.05;0.88;;;20.40;60.70;;;;;;5131088;28;20189;-59
2022/05/17 04:41:46;;;;;;;1.05;0.85;;;20.40;60.70;;;;;;5130780;28;20197;-59
2022/05/17 04:44:16;;;;;;;1.13;0.90;;;20.50;60.70;;;;;;5130487;28;20232;-57
2022/05/17 04:46:47;;;;;;;1.80;1.15;;;20.40;60.60;;;;;;5130167;27;20549;-58
2022/05/17 04:49:17;;;;;;;1.50;1.20;;;20.50;60.70;;;;;;5130576;28;20656;-58
2022/05/17 04:51:48;;;;;;;1.77;1.05;;;20.50;60.70;;;;;;5130127;28;20320;-60
2022/05/17 04:54:21;;;;;;;1.77;0.82;;;20.50;60.70;;;;;;5130360;28;20193;-59
2022/05/17 04:56:51;;;;;;;1.10;1.00;;;20.50;60.70;;;;;;5130488;28;20192;-59
2022/05/17 04:59:22;;;;;;;1.10;1.00;;;20.50;60.60;;;;;;5130213;27;20652;-59
2022/05/17 05:01:52;;;;;;;1.10;1.00;;;20.50;60.50;;;;;;5130795;28;20192;-58
2022/05/17 05:04:23;;;;;;;1.20;1.10;;;20.50;60.40;;;;;;5130617;27;20235;-58
2022/05/17 05:06:53;;;;;;;1.88;1.13;;;20.50;60.30;;;;;;5130234;27;20708;-59
2022/05/17 05:09:26;;;;;;;1.50;1.17;;;20.50;60.40;;;;;;5134509;27;20196;-60
2022/05/17 05:11:56;;;;;;;1.23;1.10;;;20.50;60.40;;;;;;5134644;27;20189;-60
2022/05/17 05:14:27;;;;;;;1.17;1.08;;;20.50;60.30;;;;;;5134137;27;20193;-59
2022/05/17 05:16:57;;;;;;;1.33;1.23;;;20.50;60.30;;;;;;5134409;27;20245;-58
2022/05/17 05:19:28;;;;;;;1.17;1.10;;;20.50;60.30;;;;;;5134314;27;20239;-59
2022/05/17 05:21:58;;;;;;;1.10;1.00;;;20.50;60.30;;;;;;5133858;27;20197;-58
2022/05/17 05:24:31;;;;;;;1.42;1.30;;;20.50;60.40;;;;;;5134410;27;20196;-59
2022/05/17 05:27:02;;;;;;;1.33;1.20;;;20.50;60.60;;;;;;5133969;27;20245;-58
2022/05/17 05:29:32;;;;;;;1.88;1.10;;;20.50;60.40;;;;;;5134685;27;20217;-60
2022/05/17 05:32:03;;;;;;;1.48;1.20;;;20.50;60.40;;;;;;5134146;27;20197;-59
2022/05/17 05:34:33;;;;;;;2.58;1.30;;;20.50;60.50;;;;;;5134068;27;20193;-59
2022/05/17 05:37:05;;;;;;;1.30;1.20;;;20.40;60.30;;;;;;5133479;27;20192;-59
2022/05/17 05:39:37;;;;;;;1.17;1.08;;;20.50;60.40;;;;;;5133550;27;20209;-59
2022/05/17 05:42:09;;;;;;;1.30;1.10;;;20.40;60.30;;;;;;5133422;27;20257;-59
2022/05/17 05:44:39;;;;;;;1.52;1.25;;;20.40;60.20;;;;;;5133745;27;20246;-59
2022/05/17 05:47:10;;;;;;;1.45;1.35;;;20.40;60.10;;;;;;5133445;27;20196;-60
2022/05/17 05:49:40;;;;;;;1.80;1.52;;;20.40;60.10;;;;;;5133497;27;20221;-59
2022/05/17 05:52:11;;;;;;;1.45;1.30;;;20.50;60.20;;;;;;5133026;27;20197;-57
2022/05/17 05:54:44;;;;;;;1.30;1.20;;;20.40;60.10;;;;;;5133560;27;20192;-59
2022/05/17 05:57:14;;;;;;;1.88;1.30;;;20.40;60.20;;;;;;5133821;27;20304;-58
2022/05/17 05:59:46;;;;;;;1.67;1.58;;;20.40;60.10;;;;;;5122527;27;20248;-59
2022/05/17 06:02:16;;;;;;;1.40;1.30;;;20.40;60.20;;;;;;5113134;28;20218;-58
2022/05/17 06:04:47;;;;;;;1.60;1.50;;;20.30;60.10;;;;;;5113099;28;20246;-59
2022/05/17 06:07:17;;;;;;;1.20;1.10;;;20.40;60.10;;;;;;5132181;27;20201;-60
2022/05/17 06:09:50;;;;;;;1.65;1.55;;;20.30;60.10;;;;;;5133148;27;20699;-59
2022/05/17 06:12:20;;;;;;;1.55;1.45;;;20.30;60.10;;;;;;5133108;27;20205;-59
2022/05/17 06:14:51;;;;;;;1.80;1.40;;;20.30;60.10;;;;;;5133199;27;20338;-58
2022/05/17 06:17:27;;;;;;;1.63;1.48;;;20.30;60.20;;;;;;5132807;27;20254;-59
2022/05/17 06:19:57;;;;;;;1.75;1.40;;;20.30;60.20;;;;;;5133018;27;20273;-60
2022/05/17 06:22:29;;;;;;;1.85;1.75;;;20.20;60.10;;;;;;5132525;27;20208;-58
2022/05/17 06:25:02;;;;;;;1.55;1.40;;;20.30;60.30;;;;;;5133244;27;20200;-59
2022/05/17 06:27:32;;;;;;;1.73;1.55;;;20.20;60.20;;;;;;5133052;27;20239;-59
2022/05/17 06:30:03;;;;;;;1.38;1.27;;;20.20;60.20;;;;;;5133344;27;20270;-58
2022/05/17 06:32:33;;;;;;;1.90;1.80;;;20.20;60.20;;;;;;5133200;27;20245;-60
2022/05/17 06:35:04;;;;;;;2.42;1.70;;;20.10;60.10;;;;;;5132918;27;20196;-58
2022/05/17 06:37:35;;;;;;;1.70;1.60;;;20.10;60.10;;;;;;5132501;27;20826;-60
2022/05/17 06:40:09;;;;;;;1.98;1.75;;;20.10;60.10;;;;;;5132812;27;20231;-60
2022/05/17 06:42:40;;;;;;;2.05;1.85;;;20.10;60.10;;;;;;5133033;27;20237;-61
2022/05/17 06:45:12;;;;;;;2.38;1.98;;;20.10;60.20;;;;;;5132538;27;20549;-60
2022/05/17 06:47:42;;;;;;;3.78;2.88;;;20.10;60.20;;;;;;5132563;27;20227;-61
2022/05/17 06:50:14;;;;;;;3.35;2.47;;;20.10;60.20;;;;;;5132272;27;20276;-60
2022/05/17 06:52:44;;;;;;;2.78;2.38;;;20.10;60.30;;;;;;5111668;28;20262;-60
2022/05/17 06:55:17;;;;;;;2.58;2.38;;;20.00;60.20;;;;;;5112044;28;20194;-60
2022/05/17 06:57:48;;;;;;;3.35;3.05;;;20.00;60.20;;;;;;5111773;28;20657;-59
2022/05/17 07:00:22;;;;;;;3.20;2.90;;;20.00;60.20;;;;;;5127424;27;20283;-60
2022/05/17 07:02:52;;;;;;;3.72;3.28;;;20.00;60.20;;;;;;5131958;27;20667;-60
2022/05/17 07:05:23;;;;;;;4.13;3.63;;;19.90;60.20;;;;;;5130876;27;20250;-60
2022/05/17 07:07:54;;;;;;;3.92;3.42;;;20.00;60.20;;;;;;5131538;27;20756;-59
2022/05/17 07:13:13;;;;;;;4.75;3.70;;;19.90;60.20;;;;;;5132094;27;20196;-60
2022/05/17 07:15:46;;;;;;;4.00;3.70;;;19.90;60.20;;;;;;5132072;27;20189;-60
2022/05/17 07:18:19;;;;;;;4.75;3.97;;;19.90;60.20;;;;;;5132132;27;20193;-60
2022/05/17 07:20:50;;;;;;;4.15;3.67;;;19.90;60.20;;;;;;5131385;27;20213;-60
2022/05/17 07:23:21;;;;;;;4.30;3.88;;;19.80;60.10;;;;;;5131821;27;20720;-59
2022/05/17 07:25:54;;;;;;;4.93;3.80;;;19.80;60.10;;;;;;5131634;27;20683;-60
2022/05/17 07:28:26;;;;;;;3.70;3.40;;;19.80;60.10;;;;;;5131586;27;20674;-59
2022/05/17 07:30:57;;;;;;;3.90;3.60;;;19.80;60.10;;;;;;5131688;27;20213;-60
2022/05/17 07:33:27;;;;;;;4.47;4.07;;;19.70;60.00;;;;;;5131749;27;20204;-60
2022/05/17 07:35:58;;;;;;;5.75;4.35;;;19.70;60.10;;;;;;5130418;27;20253;-61
2022/05/17 07:38:28;;;;;;;5.25;4.20;;;19.70;60.10;;;;;;5131275;27;20279;-60
2022/05/17 07:41:01;;;;;;;4.78;4.28;;;19.70;60.10;;;;;;5131576;27;20587;-59
2022/05/17 07:43:32;;;;;;;4.50;4.10;;;19.60;60.10;;;;;;5131611;27;20549;-59
2022/05/17 07:46:02;;;;;;;4.50;4.10;;;19.60;60.10;;;;;;5131725;27;20192;-60
2022/05/17 07:48:33;;;;;;;4.85;4.18;;;19.60;60.10;;;;;;5131379;27;20286;-60
2022/05/17 07:51:05;;;;;;;5.90;4.95;;;19.60;60.10;;;;;;5130508;27;20737;-60
2022/05/17 07:53:36;;;;;;;4.97;4.47;;;19.60;60.20;;;;;;5131165;27;20197;-59
2022/05/17 07:56:09;;;;;;;5.10;4.60;;;19.60;60.20;;;;;;5131057;27;20197;-60
2022/05/17 07:58:39;;;;;;;7.20;5.47;;;19.50;60.20;;;;;;5130934;27;20197;-60
2022/05/17 08:01:10;;;;;;;6.97;5.43;;;19.50;60.20;;;;;;5130978;27;20205;-60
2022/05/17 08:03:41;;;;;;;7.70;5.32;;;19.50;60.30;;;;;;5112921;27;20190;-59
2022/05/17 08:06:11;;;;;;;7.03;5.60;;;19.50;60.40;;;;;;5113592;27;20193;-59
2022/05/17 08:08:42;;;;;;;6.72;6.13;;;19.50;60.50;;;;;;5130662;27;20273;-60
2022/05/17 08:11:14;;;;;;;8.13;5.63;;;19.50;60.50;;;;;;5130880;27;20258;-59
2022/05/17 08:13:45;;;;;;;6.32;5.65;;;19.50;60.60;;;;;;5130903;27;20658;-59
2022/05/17 08:16:15;;;;;;;7.38;6.07;;;19.40;60.50;;;;;;5130671;27;20240;-59
2022/05/17 08:18:46;;;;;;;7.10;5.80;;;19.40;60.50;;;;;;5130917;27;20249;-60
2022/05/17 08:21:16;;;;;;;7.55;6.50;;;19.40;60.60;;;;;;5130542;27;20240;-60
2022/05/17 08:23:47;;;;;;;8.15;6.20;;;19.40;60.60;;;;;;5131078;27;20232;-60
2022/05/17 08:29:06;;;;;;;6.55;5.95;;;19.30;60.70;;;;;;5131444;27;20273;-59
2022/05/17 08:31:36;;;;;;;6.72;6.00;;;19.40;60.80;;;;;;5130479;28;20265;-60
2022/05/17 08:34:08;;;;;;;6.80;6.20;;;19.40;60.80;;;;;;5130632;28;20606;-59
2022/05/17 08:36:38;;;;;;;6.95;6.25;;;19.30;60.90;;;;;;5130924;28;20279;-59
2022/05/17 08:39:09;;;;;;;6.72;6.03;;;19.30;60.90;;;;;;5131414;27;20241;-60
2022/05/17 08:41:45;;;;;;;6.70;6.10;;;19.30;61.00;;;;;;5135003;27;20200;-60
2022/05/17 08:44:17;;;;;;;8.02;6.30;;;19.30;61.00;;;;;;5134688;27;20241;-60
2022/05/17 08:47:01;;;;;;;7.05;6.35;;;19.30;61.00;;;;;;5134494;27;20541;-59
2022/05/17 08:49:35;;;;;;;6.65;5.95;;;19.30;61.00;;;;;;5134722;27;20252;-60
2022/05/17 08:52:08;;;;;;;7.28;6.57;;;19.30;61.00;;;;;;5134374;27;20541;-59
2022/05/17 08:54:42;;;;;;;6.65;6.05;;;19.20;61.00;;;;;;5131453;27;20613;-60
2022/05/17 08:57:23;;;;;;;7.00;6.30;;;19.20;61.00;;;;;;5134921;27;20193;-60
2022/05/17 08:59:54;;;;;;;7.30;6.13;;;19.20;61.10;;;;;;5134796;27;20234;-60
2022/05/17 09:02:32;;;;;;;7.13;6.43;;;19.20;61.10;;;;;;5134689;27;20242;-60
2022/05/17 09:05:18;;;;;;;7.05;6.35;;;19.20;61.20;;;;;;5134300;27;20196;-60
2022/05/17 09:07:56;;;;;;;7.75;6.72;;;19.20;61.20;;;;;;5133468;27;20249;-60
2022/05/17 09:10:34;;;;;;;6.70;6.05;;;19.20;61.20;;;;;;5133956;27;20220;-59
2022/05/17 09:13:13;;;;;;;7.10;6.40;;;19.20;61.20;;;;;;5134462;27;20336;-60
2022/05/17 09:15:44;;;;;;;6.85;6.15;;;19.10;61.20;;;;;;5134363;27;20227;-59
2022/05/17 09:18:19;;;;;;;6.43;5.57;;;19.10;61.20;;;;;;5134216;27;20265;-60
2022/05/17 09:20:50;;;;;;;6.90;6.30;;;19.10;61.20;;;;;;5134432;27;20220;-59
2022/05/17 09:23:20;;;;;;;6.93;6.13;;;19.10;61.20;;;;;;5133700;27;20204;-60
2022/05/17 09:26:08;;;;;;;7.70;5.97;;;19.10;61.20;;;;;;5133837;27;20257;-59
2022/05/17 09:28:53;;;;;;;6.47;5.88;;;19.10;61.30;;;;;;5134182;27;20688;-60
2022/05/17 09:31:35;;;;;;;6.20;5.60;;;19.00;61.20;;;;;;5133583;27;20219;-59
2022/05/17 09:34:08;;;;;;;6.35;5.75;;;19.00;61.20;;;;;;5133814;27;20242;-60
2022/05/17 09:36:48;;;;;;;7.03;5.80;;;19.00;61.20;;;;;;5133572;27;20193;-61
2022/05/17 09:39:22;;;;;;;6.10;5.60;;;19.00;61.10;;;;;;5133485;27;20189;-60
2022/05/17 09:41:54;;;;;;;6.45;5.85;;;19.00;61.10;;;;;;5133331;27;20237;-60
2022/05/17 09:44:29;;;;;;;6.82;6.13;;;18.90;61.00;;;;;;5133506;27;20222;-61
2022/05/17 09:47:03;;;;;;;6.53;5.85;;;19.00;61.00;;;;;;5133646;27;20196;-60
2022/05/17 09:52:38;;;;;;;7.85;6.05;;;18.90;60.90;;;;;;5132385;27;20277;-61
2022/05/17 09:55:25;;;;;;;5.90;5.30;;;18.90;60.90;;;;;;5133608;27;20188;-61
2022/05/17 09:57:57;;;;;;;6.53;5.93;;;18.80;60.80;;;;;;5133630;27;20254;-61
2022/05/17 10:00:32;;;;;;;5.63;5.10;;;18.80;60.80;;;;;;5133683;27;20813;-60
2022/05/17 10:03:05;;;;;;;6.00;5.38;;;18.80;60.90;;;;;;5133457;27;20188;-60
2022/05/17 10:05:49;;;;;;;6.00;5.50;;;18.80;60.90;;;;;;5133246;27;20246;-60
2022/05/17 10:08:45;;;;;;;6.57;5.75;;;18.80;60.90;;;;;;5132871;27;20195;-60
2022/05/17 10:11:24;;;;;;;6.90;5.45;;;18.80;61.00;;;;;;5108348;27;20214;-60
2022/05/17 10:14:19;;;;;;;5.75;5.25;;;18.70;60.80;;;;;;5112996;28;20197;-60
2022/05/17 10:16:55;;;;;;;5.68;5.18;;;18.70;60.90;;;;;;5107962;28;20266;-59
2022/05/17 10:19:39;;;;;;;7.20;5.88;;;18.70;60.90;;;;;;5112243;28;20234;-60
2022/05/17 10:22:20;;;;;;;6.28;5.68;;;18.60;60.90;;;;;;5116999;27;20200;-60
2022/05/17 10:24:54;;;;;;;5.95;5.45;;;18.60;60.80;;;;;;5132701;27;20196;-61
2022/05/17 10:27:30;;;;;;;6.65;6.00;;;18.60;60.80;;;;;;5132811;27;20237;-60
2022/05/17 10:30:06;;;;;;;6.95;6.00;;;18.60;60.80;;;;;;5133248;27;20220;-60
2022/05/17 10:32:42;;;;;;;5.43;4.90;;;18.60;60.80;;;;;;5133136;27;20225;-60
2022/05/17 10:35:19;;;;;;;6.35;5.15;;;18.60;60.80;;;;;;5132928;27;20204;-60
2022/05/17 10:37:56;;;;;;;5.95;5.43;;;18.60;60.80;;;;;;5132677;27;20192;-60
2022/05/17 10:40:30;;;;;;;6.40;5.80;;;18.50;60.80;;;;;;5132428;27;20205;-60
2022/05/17 10:43:01;;;;;;;6.18;5.45;;;18.50;60.80;;;;;;5132563;27;20241;-60
2022/05/17 10:45:35;;;;;;;5.65;5.15;;;18.50;60.90;;;;;;5130438;27;20197;-61
2022/05/17 10:48:20;;;;;;;5.95;5.28;;;18.50;60.90;;;;;;5112039;28;20642;-60
2022/05/17 10:50:59;;;;;;;5.22;4.57;;;18.50;60.90;;;;;;5116590;27;20265;-61
2022/05/17 10:53:44;;;;;;;5.53;4.90;;;18.40;60.80;;;;;;5131474;27;20648;-60
2022/05/17 10:56:28;;;;;;;6.95;5.32;;;18.40;60.90;;;;;;5132380;27;20196;-61
2022/05/17 10:59:04;;;;;;;5.65;5.15;;;18.40;60.90;;;;;;5132091;27;20204;-61
2022/05/17 11:01:46;;;;;;;6.07;5.47;;;18.30;60.80;;;;;;5131932;27;20192;-61
2022/05/17 11:04:57;;;;;;;5.38;4.88;;;18.30;60.90;;;;;;5130988;27;20192;-60
2022/05/17 11:07:40;;;;;;;6.30;5.40;;;18.40;61.00;;;;;;5130349;27;20197;-60
2022/05/17 11:10:19;;;;;;;5.75;5.15;;;18.30;60.80;;;;;;5124730;27;20221;-60
2022/05/17 11:12:54;;;;;;;5.88;5.28;;;18.30;60.90;;;;;;5131689;27;20241;-60
2022/05/17 11:15:32;;;;;;;5.47;4.93;;;18.30;60.90;;;;;;5131837;27;20196;-60
2022/05/17 11:18:10;;;;;;;6.03;5.28;;;18.30;60.90;;;;;;5131575;27;20196;-60
2022/05/17 11:20:47;;;;;;;6.00;5.22;;;18.20;60.90;;;;;;5131753;27;20216;-61
2022/05/17 11:23:47;;;;;;;5.38;4.88;;;18.30;60.90;;;;;;5131342;27;20200;-60
2022/05/17 11:26:43;;;;;;;5.20;4.70;;;18.20;60.80;;;;;;5125746;27;20185;-60
2022/05/17 11:29:32;;;;;;;5.13;4.63;;;18.20;60.80;;;;;;5131145;27;20265;-60
2022/05/17 11:32:17;;;;;;;5.30;4.80;;;18.20;60.90;;;;;;5131530;27;20253;-60
2022/05/17 11:34:49;;;;;;;5.20;4.70;;;18.20;60.80;;;;;;5131575;27;20194;-60
2022/05/17 11:37:51;;;;;;;5.72;5.22;;;18.10;60.80;;;;;;5131030;27;20193;-60
2022/05/17 11:40:56;;;;;;;6.18;5.10;;;18.10;60.90;;;;;;5131281;27;20266;-61
2022/05/17 11:43:46;;;;;;;5.70;5.20;;;18.10;60.80;;;;;;5129001;27;20188;-61
2022/05/17 11:46:56;;;;;;;5.10;4.60;;;18.10;60.90;;;;;;5131649;27;20185;-61
2022/05/17 11:49:41;;;;;;;5.18;4.78;;;18.10;60.90;;;;;;5131424;27;20809;-60
2022/05/17 11:52:32;;;;;;;5.43;4.93;;;18.10;60.90;;;;;;5130749;27;20640;-60
2022/05/17 11:55:11;;;;;;;6.50;5.15;;;18.00;60.80;;;;;;5131176;27;20201;-60
2022/05/17 11:57:59;;;;;;;5.85;5.25;;;18.00;60.90;;;;;;5131212;27;20268;-60
2022/05/17 12:00:49;;;;;;;6.65;5.55;;;17.90;60.90;;;;;;5131235;27;20223;-60
2022/05/17 12:03:53;;;;;;;5.47;4.90;;;17.90;60.80;;;;;;5131286;27;20193;-60
2022/05/17 12:07:04;;;;;;;4.90;4.50;;;17.90;60.80;;;;;;5131549;27;20222;-61
2022/05/17 12:09:38;;;;;;;5.30;4.80;;;17.90;60.80;;;;;;5130484;27;20256;-59
2022/05/17 12:12:40;;;;;;;5.10;4.70;;;17.90;60.80;;;;;;5127516;27;20189;-60
2022/05/17 12:15:35;;;;;;;4.72;4.32;;;17.90;60.90;;;;;;5110231;28;20193;-60
2022/05/17 12:18:19;;;;;;;4.85;4.40;;;17.80;60.80;;;;;;5110588;28;20197;-60
2022/05/17 12:21:09;;;;;;;4.75;4.35;;;17.80;60.80;;;;;;5122555;27;20650;-60
2022/05/17 12:23:50;;;;;;;5.05;4.55;;;17.80;60.90;;;;;;5130453;27;20196;-61
2022/05/17 12:26:29;;;;;;;4.50;4.20;;;17.80;60.90;;;;;;5131091;27;20759;-60
2022/05/17 12:30:52;;;;;;;5.15;4.55;;;17.80;60.90;;;;;;5131340;27;20188;-60
2022/05/17 12:31:59;;;;;;;5.10;4.60;;;17.80;60.90;;;;;;5130633;28;20189;-61
2022/05/17 12:34:30;;;;;;;4.90;4.50;;;17.70;60.90;;;;;;5130720;28;20188;-60
2022/05/17 12:37:14;;;;;;;5.07;4.63;;;17.70;60.90;;;;;;5130894;27;20701;-60
2022/05/17 12:45:29;;;;;;;5.07;4.57;;;17.70;60.90;;;;;;5129054;27;20227;-61
2022/05/17 12:48:01;;;;;;;4.97;4.57;;;17.60;60.90;;;;;;5110416;28;20268;-60
2022/05/17 12:50:43;;;;;;;5.00;4.60;;;17.60;60.90;;;;;;5109930;28;20225;-60
2022/05/17 12:53:19;;;;;;;5.03;4.55;;;17.70;61.00;;;;;;5115585;28;20197;-61
2022/05/17 12:56:06;;;;;;;4.72;4.32;;;17.60;60.90;;;;;;5129875;28;20218;-61
2022/05/17 12:58:37;;;;;;;5.22;4.72;;;17.60;60.90;;;;;;5130075;28;20228;-60
2022/05/17 13:01:10;;;;;;;4.60;4.20;;;17.60;60.90;;;;;;5130660;28;20212;-61
2022/05/17 13:03:46;;;;;;;4.78;4.38;;;17.60;60.90;;;;;;5130729;28;20227;-60
2022/05/17 13:06:20;;;;;;;4.78;4.38;;;17.60;60.90;;;;;;5130478;28;20196;-60
2022/05/17 13:08:59;;;;;;;5.00;4.50;;;17.60;60.90;;;;;;5130036;28;20193;-61
2022/05/17 13:11:30;;;;;;;4.85;4.45;;;17.50;60.90;;;;;;5130252;27;20293;-61
2022/05/17 13:14:02;;;;;;;4.53;4.13;;;17.50;60.90;;;;;;5130452;28;20241;-60
2022/05/17 13:16:36;;;;;;;4.50;4.10;;;17.50;60.90;;;;;;5130512;28;20196;-60
2022/05/17 13:19:10;;;;;;;4.82;4.43;;;17.50;61.00;;;;;;5130331;28;20223;-60
2022/05/17 13:21:42;;;;;;;5.38;4.88;;;17.50;61.00;;;;;;5129891;28;20648;-60
2022/05/17 13:24:29;;;;;;;4.43;4.05;;;17.50;61.00;;;;;;5129334;28;20674;-60
2022/05/17 13:27:05;;;;;;;4.80;4.38;;;17.40;60.90;;;;;;5131967;27;20675;-60
2022/05/17 13:29:36;;;;;;;4.18;3.83;;;17.50;61.00;;;;;;5134055;27;20257;-61
2022/05/17 13:32:20;;;;;;;4.38;3.97;;;17.40;60.90;;;;;;5133702;27;20193;-60
2022/05/17 13:35:20;;;;;;;4.18;3.83;;;17.50;61.00;;;;;;5133618;27;20196;-60
2022/05/17 13:37:59;;;;;;;4.65;4.25;;;17.40;60.90;;;;;;5133207;27;20501;-60
2022/05/17 13:40:48;;;;;;;4.57;4.18;;;17.40;60.90;;;;;;5133561;27;20756;-60
2022/05/17 13:43:38;;;;;;;4.35;3.95;;;17.40;60.90;;;;;;5133710;27;20261;-60